Time;durP1;ratioP1;P1;durP2;ratioP2;P2;SDS_P1;SDS_P2;PMS_P1;PMS_P2;Temp;Humidity;BMP_temperature;BMP_pressure;BME280_temperature;BME280_humidity;BME280_pressure;Samples;Min_cycle;Max_cycle;Signal;HPM_P1;HPM_P2
2023/04/11 00:45:52;;;;;;;0.10;0.10;;;;;;;;;;6227666;23;20514;-75
2023/04/11 00:48:19;;;;;;;0.10;0.10;;;;;;;;;;6231597;23;20024;-75
2023/04/11 00:50:45;;;;;;;0.20;0.20;;;;;;;;;;6229318;23;20962;-75
2023/04/11 00:53:12;;;;;;;0.15;0.15;;;;;;;;;;6229887;23;20042;-75
2023/04/11 00:55:38;;;;;;;0.10;0.10;;;;;;;;;;6228989;23;20035;-75
2023/04/11 00:58:07;;;;;;;0.10;0.10;;;;;;;;;;6229968;23;20086;-75
2023/04/11 01:00:34;;;;;;;0.10;0.10;;;;;;;;;;6229543;23;20032;-83
2023/04/11 01:03:00;;;;;;;0.10;0.10;;;;;;;;;;6229996;23;20034;-82
2023/04/11 01:05:27;;;;;;;0.10;0.10;;;;;;;;;;6230155;23;20028;-82
2023/04/11 01:07:54;;;;;;;0.10;0.10;;;;;;;;;;6231571;23;20098;-81
2023/04/11 01:10:21;;;;;;;0.20;0.20;;;;;;;;;;6228738;23;20505;-83
2023/04/11 01:12:47;;;;;;;0.10;0.10;;;;;;;;;;6230181;23;20024;-82
2023/04/11 01:15:13;;;;;;;0.10;0.10;;;;;;;;;;6230094;23;20031;-83
2023/04/11 01:17:42;;;;;;;0.10;0.10;;;;;;;;;;6230295;23;20127;-82
2023/04/11 01:20:09;;;;;;;0.20;0.20;;;;;;;;;;6229784;23;20031;-81
2023/04/11 01:22:36;;;;;;;0.10;0.10;;;;;;;;;;6229933;23;20346;-81
2023/04/11 01:25:03;;;;;;;0.10;0.10;;;;;;;;;;6229758;23;20447;-81
2023/04/11 01:27:30;;;;;;;0.47;0.47;;;;;;;;;;6228735;23;20575;-80
2023/04/11 01:29:56;;;;;;;0.10;0.10;;;;;;;;;;6229838;23;20170;-80
2023/04/11 01:32:22;;;;;;;0.20;0.20;;;;;;;;;;6230751;23;20024;-81
2023/04/11 01:34:49;;;;;;;0.10;0.10;;;;;;;;;;6229508;23;20032;-81
2023/04/11 01:37:15;;;;;;;0.10;0.10;;;;;;;;;;6231312;23;20133;-77
2023/04/11 01:39:41;;;;;;;0.20;0.20;;;;;;;;;;6201758;23;20024;-77
2023/04/11 01:42:08;;;;;;;0.20;0.20;;;;;;;;;;6229060;23;20024;-77
2023/04/11 01:44:35;;;;;;;0.10;0.10;;;;;;;;;;6228821;23;20075;-77
2023/04/11 01:47:02;;;;;;;0.10;0.10;;;;;;;;;;6229117;23;20028;-77
2023/04/11 01:49:28;;;;;;;0.10;0.10;;;;;;;;;;6228370;23;20601;-76
2023/04/11 01:51:54;;;;;;;0.10;0.10;;;;;;;;;;6229149;23;20020;-77
2023/04/11 01:54:20;;;;;;;0.17;0.17;;;;;;;;;;6229212;23;20400;-76
2023/04/11 01:56:46;;;;;;;0.10;0.10;;;;;;;;;;6229590;23;20020;-77
2023/04/11 01:59:13;;;;;;;0.10;0.10;;;;;;;;;;6228528;23;20098;-77
2023/04/11 02:01:39;;;;;;;0.40;0.40;;;;;;;;;;6228797;23;20558;-76
2023/04/11 02:04:05;;;;;;;0.10;0.10;;;;;;;;;;6229697;23;20099;-76
2023/04/11 02:06:31;;;;;;;0.10;0.10;;;;;;;;;;6204240;23;20034;-76
2023/04/11 02:08:57;;;;;;;0.10;0.10;;;;;;;;;;6230069;23;20020;-76
2023/04/11 02:11:23;;;;;;;0.10;0.10;;;;;;;;;;6229403;23;20020;-76
2023/04/11 02:13:50;;;;;;;0.10;0.10;;;;;;;;;;6229418;23;20369;-76
2023/04/11 02:16:16;;;;;;;0.10;0.10;;;;;;;;;;6229068;23;20039;-76
2023/04/11 02:18:43;;;;;;;0.10;0.10;;;;;;;;;;6229075;23;20027;-76
2023/04/11 02:21:09;;;;;;;0.10;0.10;;;;;;;;;;6228785;23;20028;-77
2023/04/11 02:23:35;;;;;;;0.10;0.10;;;;;;;;;;6229049;23;20471;-76
2023/04/11 02:26:02;;;;;;;0.10;0.10;;;;;;;;;;6204090;23;20024;-75
2023/04/11 02:28:28;;;;;;;0.10;0.10;;;;;;;;;;6229524;23;20475;-75
2023/04/11 02:30:55;;;;;;;0.10;0.10;;;;;;;;;;6228030;23;20024;-76
2023/04/11 02:33:21;;;;;;;0.10;0.10;;;;;;;;;;6230997;23;20773;-76
2023/04/11 02:35:47;;;;;;;0.10;0.10;;;;;;;;;;6229619;23;20020;-80
2023/04/11 02:38:13;;;;;;;0.10;0.10;;;;;;;;;;6228608;23;20024;-79
2023/04/11 02:40:39;;;;;;;0.10;0.10;;;;;;;;;;6228400;23;20035;-79
2023/04/11 02:43:05;;;;;;;0.10;0.10;;;;;;;;;;6229422;23;20047;-79
2023/04/11 02:45:31;;;;;;;0.15;0.15;;;;;;;;;;6228624;23;20063;-80
2023/04/11 02:47:57;;;;;;;12.73;1.08;;;;;;;;;;6229435;23;20753;-79
2023/04/11 02:50:25;;;;;;;0.20;0.20;;;;;;;;;;6228826;23;20419;-80
2023/04/11 02:52:52;;;;;;;0.10;0.10;;;;;;;;;;6228781;23;20020;-79
2023/04/11 02:55:18;;;;;;;0.20;0.20;;;;;;;;;;6229278;23;20337;-79
2023/04/11 02:57:44;;;;;;;0.20;0.20;;;;;;;;;;6228748;23;20103;-80
2023/04/11 03:00:10;;;;;;;0.35;0.35;;;;;;;;;;6228818;23;20086;-80
2023/04/11 03:02:36;;;;;;;0.10;0.10;;;;;;;;;;6228602;23;20837;-79
2023/04/11 03:05:03;;;;;;;0.10;0.10;;;;;;;;;;6229294;23;20028;-79
2023/04/11 03:07:32;;;;;;;0.10;0.10;;;;;;;;;;6228552;23;20363;-79
2023/04/11 03:10:01;;;;;;;0.10;0.10;;;;;;;;;;6228859;23;20460;-81
2023/04/11 03:12:27;;;;;;;0.15;0.15;;;;;;;;;;6228221;23;20031;-75
2023/04/11 03:14:53;;;;;;;0.10;0.10;;;;;;;;;;6230347;23;20351;-76
2023/04/11 03:17:19;;;;;;;0.10;0.10;;;;;;;;;;6229069;23;20743;-76
2023/04/11 03:19:45;;;;;;;0.10;0.10;;;;;;;;;;6228889;23;20423;-76
2023/04/11 03:22:11;;;;;;;0.10;0.10;;;;;;;;;;6228069;23;20071;-76
2023/04/11 03:24:40;;;;;;;0.10;0.10;;;;;;;;;;6229094;23;20559;-76
2023/04/11 03:27:06;;;;;;;0.10;0.10;;;;;;;;;;6228393;23;20023;-76
2023/04/11 03:29:32;;;;;;;0.10;0.10;;;;;;;;;;6229151;23;20336;-76
2023/04/11 03:31:59;;;;;;;0.10;0.10;;;;;;;;;;6203283;23;20358;-74
2023/04/11 03:34:25;;;;;;;0.10;0.10;;;;;;;;;;6229592;23;20056;-74
2023/04/11 03:36:52;;;;;;;1.25;1.17;;;;;;;;;;6231953;23;20144;-75
2023/04/11 03:39:19;;;;;;;0.10;0.10;;;;;;;;;;6231015;23;20451;-75
2023/04/11 03:41:45;;;;;;;0.10;0.10;;;;;;;;;;6230238;23;20020;-75
2023/04/11 03:44:11;;;;;;;0.10;0.10;;;;;;;;;;6229473;23;20028;-74
2023/04/11 03:46:37;;;;;;;0.10;0.10;;;;;;;;;;6230442;23;20035;-75
2023/04/11 03:49:03;;;;;;;0.10;0.10;;;;;;;;;;6231975;23;20816;-74
2023/04/11 03:51:32;;;;;;;0.10;0.10;;;;;;;;;;6230927;23;20032;-83
2023/04/11 03:53:58;;;;;;;0.10;0.10;;;;;;;;;;6230240;23;20063;-82
2023/04/11 03:56:24;;;;;;;0.10;0.10;;;;;;;;;;6230595;23;20028;-83
2023/04/11 03:58:50;;;;;;;0.10;0.10;;;;;;;;;;6204911;23;20095;-84
2023/04/11 04:01:16;;;;;;;0.10;0.10;;;;;;;;;;6229490;23;20027;-83
2023/04/11 04:03:42;;;;;;;0.10;0.10;;;;;;;;;;6230380;23;20024;-83
2023/04/11 04:06:09;;;;;;;0.10;0.10;;;;;;;;;;6231904;23;20801;-83
2023/04/11 04:08:35;;;;;;;0.10;0.10;;;;;;;;;;6229655;23;20020;-83
2023/04/11 04:11:01;;;;;;;0.10;0.10;;;;;;;;;;6230536;23;20024;-74
2023/04/11 04:13:27;;;;;;;0.10;0.10;;;;;;;;;;6231855;23;20123;-74
2023/04/11 04:15:53;;;;;;;0.10;0.10;;;;;;;;;;6229997;23;20016;-75
2023/04/11 04:18:19;;;;;;;0.10;0.10;;;;;;;;;;6229856;23;20564;-74
2023/04/11 04:20:46;;;;;;;0.10;0.10;;;;;;;;;;6230317;23;20707;-74
2023/04/11 04:23:16;;;;;;;0.10;0.10;;;;;;;;;;6229666;23;20119;-74
2023/04/11 04:25:44;;;;;;;0.10;0.10;;;;;;;;;;6229513;23;20028;-75
2023/04/11 04:28:10;;;;;;;0.10;0.10;;;;;;;;;;6229919;23;20091;-76
2023/04/11 04:30:37;;;;;;;0.20;0.20;;;;;;;;;;6228806;23;20032;-76
2023/04/11 04:33:10;;;;;;;0.10;0.10;;;;;;;;;;6229933;23;20074;-74
2023/04/11 04:35:36;;;;;;;;;;;;;;;;;;6230585;23;20044;-75
2023/04/11 04:38:05;;;;;;;0.10;0.10;;;;;;;;;;6229749;23;20006;-73
2023/04/11 04:40:31;;;;;;;0.10;0.10;;;;;;;;;;6202747;23;20515;-75
2023/04/11 04:42:57;;;;;;;0.10;0.10;;;;;;;;;;6203906;23;20020;-76
2023/04/11 04:45:24;;;;;;;0.20;0.20;;;;;;;;;;6204174;23;20032;-76
2023/04/11 04:47:50;;;;;;;0.10;0.10;;;;;;;;;;6204774;23;20102;-76
2023/04/11 04:50:16;;;;;;;0.45;0.45;;;;;;;;;;6205332;23;20032;-77
2023/04/11 04:52:42;;;;;;;0.10;0.10;;;;;;;;;;6203403;23;20074;-77
2023/04/11 04:55:09;;;;;;;0.38;0.38;;;;;;;;;;6203921;23;20517;-76
2023/04/11 04:57:35;;;;;;;0.10;0.10;;;;;;;;;;6204215;23;20024;-75
2023/04/11 05:00:01;;;;;;;0.10;0.10;;;;;;;;;;6203313;23;20027;-75
2023/04/11 05:02:27;;;;;;;0.10;0.10;;;;;;;;;;6232044;23;20024;-75
2023/04/11 05:04:54;;;;;;;0.10;0.10;;;;;;;;;;6204737;23;20024;-75
2023/04/11 05:07:20;;;;;;;0.10;0.10;;;;;;;;;;6205001;23;20020;-81
2023/04/11 05:09:46;;;;;;;0.10;0.10;;;;;;;;;;6204472;23;20359;-82
2023/04/11 05:12:12;;;;;;;0.10;0.10;;;;;;;;;;6204640;23;20424;-84
2023/04/11 05:14:39;;;;;;;0.10;0.10;;;;;;;;;;6203727;23;20402;-78
2023/04/11 05:17:05;;;;;;;0.10;0.10;;;;;;;;;;6204936;23;20028;-81
2023/04/11 05:19:31;;;;;;;0.10;0.10;;;;;;;;;;6204620;23;20034;-82
2023/04/11 05:21:58;;;;;;;0.10;0.10;;;;;;;;;;6204447;23;20028;-81
2023/04/11 05:24:24;;;;;;;0.10;0.10;;;;;;;;;;6179347;23;20059;-81
2023/04/11 05:26:50;;;;;;;0.10;0.10;;;;;;;;;;6205781;23;20512;-88
2023/04/11 05:29:16;;;;;;;0.10;0.10;;;;;;;;;;6180209;23;20048;-85
2023/04/11 05:31:42;;;;;;;0.10;0.10;;;;;;;;;;6204613;23;20367;-86
2023/04/11 05:34:08;;;;;;;0.10;0.10;;;;;;;;;;6204525;23;20024;-83
2023/04/11 05:36:35;;;;;;;0.10;0.10;;;;;;;;;;6204884;23;20028;-85
2023/04/11 05:39:02;;;;;;;0.10;0.10;;;;;;;;;;6205129;23;20471;-86
2023/04/11 05:41:28;;;;;;;0.45;0.45;;;;;;;;;;6180225;23;20082;-85
2023/04/11 05:43:54;;;;;;;0.10;0.10;;;;;;;;;;6205544;23;20482;-86
2023/04/11 05:46:20;;;;;;;0.10;0.10;;;;;;;;;;6208478;23;20019;-85
2023/04/11 05:48:46;;;;;;;0.38;0.38;;;;;;;;;;6206736;23;20028;-86
2023/04/11 05:51:12;;;;;;;0.10;0.10;;;;;;;;;;6206285;23;20028;-88
2023/04/11 05:53:39;;;;;;;0.13;0.13;;;;;;;;;;6204922;23;20060;-88
2023/04/11 05:56:05;;;;;;;0.10;0.10;;;;;;;;;;6205443;23;20031;-87
2023/04/11 05:58:33;;;;;;;0.10;0.10;;;;;;;;;;6205176;23;20024;-86
2023/04/11 06:00:59;;;;;;;0.10;0.10;;;;;;;;;;6204772;23;20344;-85
2023/04/11 06:03:26;;;;;;;0.10;0.10;;;;;;;;;;6231993;23;20032;-85
2023/04/11 06:05:52;;;;;;;0.10;0.10;;;;;;;;;;6205667;23;20024;-86
2023/04/11 06:08:18;;;;;;;0.10;0.10;;;;;;;;;;6205150;23;20106;-87
2023/04/11 06:10:45;;;;;;;0.68;0.68;;;;;;;;;;6205514;23;20024;-87
2023/04/11 06:13:11;;;;;;;0.10;0.10;;;;;;;;;;6206314;23;20103;-87
2023/04/11 06:15:37;;;;;;;0.93;0.85;;;;;;;;;;6204804;23;20020;-85
2023/04/11 06:18:03;;;;;;;1.00;1.00;;;;;;;;;;6205822;23;20024;-85
2023/04/11 06:20:29;;;;;;;0.10;0.10;;;;;;;;;;6205408;23;20367;-85
2023/04/11 06:22:56;;;;;;;0.10;0.10;;;;;;;;;;6232492;23;20016;-83
2023/04/11 06:25:23;;;;;;;0.10;0.10;;;;;;;;;;6204829;23;20055;-87
2023/04/11 06:27:50;;;;;;;0.10;0.10;;;;;;;;;;6204634;23;20028;-86
2023/04/11 06:30:16;;;;;;;0.10;0.10;;;;;;;;;;6204749;23;20451;-87
2023/04/11 06:32:42;;;;;;;0.10;0.10;;;;;;;;;;6204729;23;20020;-87
2023/04/11 06:35:09;;;;;;;0.10;0.10;;;;;;;;;;6179125;23;20032;-85
2023/04/11 06:37:35;;;;;;;0.10;0.10;;;;;;;;;;6179408;23;20024;-83
2023/04/11 06:40:01;;;;;;;0.20;0.20;;;;;;;;;;6179935;23;20027;-86
2023/04/11 06:42:27;;;;;;;0.10;0.10;;;;;;;;;;6206806;23;20052;-83
2023/04/11 06:44:53;;;;;;;0.10;0.10;;;;;;;;;;6180823;23;20381;-87
2023/04/11 06:47:19;;;;;;;0.10;0.10;;;;;;;;;;6207592;23;20032;-88
2023/04/11 06:49:45;;;;;;;0.10;0.10;;;;;;;;;;6213256;23;20031;-88
2023/04/11 06:52:11;;;;;;;0.10;0.10;;;;;;;;;;6209274;23;20024;-87
2023/04/11 06:54:38;;;;;;;0.10;0.10;;;;;;;;;;6217020;23;20027;-88
2023/04/11 06:57:04;;;;;;;0.10;0.10;;;;;;;;;;6211272;23;20031;-86
2023/04/11 06:59:30;;;;;;;0.10;0.10;;;;;;;;;;6206930;23;20051;-88
2023/04/11 07:01:57;;;;;;;0.10;0.10;;;;;;;;;;6205034;23;20024;-86
2023/04/11 07:04:23;;;;;;;0.38;0.38;;;;;;;;;;6204930;23;20086;-87
2023/04/11 07:06:50;;;;;;;0.10;0.10;;;;;;;;;;6204345;23;20075;-87
2023/04/11 07:09:16;;;;;;;0.10;0.10;;;;;;;;;;6206064;23;20032;-89
2023/04/11 07:11:42;;;;;;;1.27;0.95;;;;;;;;;;6182215;23;20031;-87
2023/04/11 07:14:08;;;;;;;0.60;0.60;;;;;;;;;;6206890;23;20020;-88
2023/04/11 07:16:34;;;;;;;0.10;0.10;;;;;;;;;;6206671;23;20466;-87
2023/04/11 07:19:01;;;;;;;0.10;0.10;;;;;;;;;;6205431;23;20403;-87
2023/04/11 07:21:29;;;;;;;0.10;0.10;;;;;;;;;;6205925;23;20024;-76
2023/04/11 07:23:55;;;;;;;1.65;1.55;;;;;;;;;;6233056;23;20458;-76
2023/04/11 07:26:22;;;;;;;0.10;0.10;;;;;;;;;;6232376;23;20114;-76
2023/04/11 07:28:48;;;;;;;0.10;0.10;;;;;;;;;;6232309;23;20074;-76
2023/04/11 07:31:20;;;;;;;0.20;0.20;;;;;;;;;;6205547;23;20095;-76
2023/04/11 07:33:46;;;;;;;0.10;0.10;;;;;;;;;;6203144;23;20028;-76
2023/04/11 07:36:12;;;;;;;;;;;;;;;;;;6203742;23;20099;-76
2023/04/11 07:38:38;;;;;;;;;;;;;;;;;;6204767;23;20006;-76
2023/04/11 07:41:04;;;;;;;;;;;;;;;;;;6205527;23;19915;-75
2023/04/11 07:43:30;;;;;;;;;;;;;;;;;;6206048;23;19924;-76
2023/04/11 07:45:56;;;;;;;;;;;;;;;;;;6205508;23;20243;-76
2023/04/11 07:48:23;;;;;;;0.10;0.10;;;;;;;;;;6179856;23;19915;-76
2023/04/11 07:50:49;;;;;;;0.10;0.10;;;;;;;;;;6205038;23;20039;-76
2023/04/11 07:53:15;;;;;;;0.10;0.10;;;;;;;;;;6205185;23;20020;-76
2023/04/11 07:55:41;;;;;;;0.50;0.50;;;;;;;;;;6204770;23;20471;-76
2023/04/11 07:58:08;;;;;;;0.10;0.10;;;;;;;;;;6231270;23;20024;-76
2023/04/11 08:00:34;;;;;;;0.03;0.03;;;;;;;;;;6204435;23;20050;-76
2023/04/11 08:03:03;;;;;;;0.63;0.63;;;;;;;;;;6204944;23;20099;-78
2023/04/11 08:05:29;;;;;;;0.10;0.10;;;;;;;;;;6205199;23;20066;-76
2023/04/11 08:07:56;;;;;;;0.10;0.10;;;;;;;;;;6205382;23;20032;-76
2023/04/11 08:10:22;;;;;;;0.10;0.10;;;;;;;;;;6204706;23;20024;-77
2023/04/11 08:12:48;;;;;;;0.10;0.10;;;;;;;;;;6205444;23;20032;-77
2023/04/11 08:15:14;;;;;;;0.10;0.10;;;;;;;;;;6205010;23;20086;-77
2023/04/11 08:17:42;;;;;;;0.10;0.10;;;;;;;;;;6204689;23;20514;-77
2023/04/11 08:20:09;;;;;;;0.10;0.10;;;;;;;;;;6205019;23;20093;-76
2023/04/11 08:22:35;;;;;;;0.10;0.10;;;;;;;;;;6206159;23;20463;-76
2023/04/11 08:25:01;;;;;;;0.10;0.10;;;;;;;;;;6206710;23;20020;-76
2023/04/11 08:27:27;;;;;;;0.63;0.63;;;;;;;;;;6205443;23;20056;-77
2023/04/11 08:29:53;;;;;;;0.10;0.10;;;;;;;;;;6203909;23;20035;-76
2023/04/11 08:32:19;;;;;;;1.48;1.38;;;;;;;;;;6204173;23;20028;-76
2023/04/11 08:34:45;;;;;;;0.10;0.10;;;;;;;;;;6205096;23;20027;-77
2023/04/11 08:37:12;;;;;;;0.10;0.10;;;;;;;;;;6205249;23;20031;-77
2023/04/11 08:39:38;;;;;;;0.10;0.10;;;;;;;;;;6204126;23;20027;-77
2023/04/11 08:42:04;;;;;;;;;;;;;;;;;;6180522;23;20024;-77
2023/04/11 08:44:30;;;;;;;0.10;0.10;;;;;;;;;;6204527;23;19924;-77
2023/04/11 08:46:56;;;;;;;0.10;0.10;;;;;;;;;;6202692;23;20016;-76
2023/04/11 08:49:22;;;;;;;0.10;0.10;;;;;;;;;;6204573;23;20019;-77
2023/04/11 08:51:48;;;;;;;0.10;0.10;;;;;;;;;;6179517;23;20028;-77
2023/04/11 08:54:15;;;;;;;0.10;0.10;;;;;;;;;;6204189;23;20024;-75
2023/04/11 08:56:42;;;;;;;0.10;0.10;;;;;;;;;;6204424;23;20074;-78
2023/04/11 08:59:08;;;;;;;0.10;0.10;;;;;;;;;;6204505;23;20020;-77
2023/04/11 09:01:36;;;;;;;0.10;0.10;;;;;;;;;;6203434;23;20063;-76
2023/04/11 09:04:05;;;;;;;0.10;0.10;;;;;;;;;;6204758;23;20030;-76
2023/04/11 09:06:32;;;;;;;0.10;0.10;;;;;;;;;;6179703;23;20055;-76
2023/04/11 09:09:05;;;;;;;0.10;0.10;;;;;;;;;;6179267;23;20031;-76
2023/04/11 09:11:50;;;;;;;0.10;0.10;;;;;;;;;;6204759;23;20020;-76
2023/04/11 09:14:16;;;;;;;0.10;0.10;;;;;;;;;;6204590;23;20024;-91
2023/04/11 09:17:03;;;;;;;0.10;0.10;;;;;;;;;;6208229;23;20063;-91
2023/04/11 09:19:33;;;;;;;0.10;0.10;;;;;;;;;;6208938;23;20062;-89
2023/04/11 09:22:00;;;;;;;0.10;0.10;;;;;;;;;;6181113;23;20383;-87
2023/04/11 09:24:29;;;;;;;0.10;0.10;;;;;;;;;;6206752;23;20023;-90
2023/04/11 09:27:06;;;;;;;0.10;0.10;;;;;;;;;;6205203;23;20028;-91
2023/04/11 09:29:50;;;;;;;0.20;0.20;;;;;;;;;;6207763;23;20086;-88
2023/04/11 09:32:16;;;;;;;;;;;;;;;;;;6206206;23;20024;-87
2023/04/11 09:34:42;;;;;;;0.10;0.10;;;;;;;;;;6207526;23;19925;-89
2023/04/11 09:37:08;;;;;;;0.10;0.10;;;;;;;;;;6203647;23;20019;-89
2023/04/11 09:39:34;;;;;;;0.10;0.10;;;;;;;;;;6202843;23;20024;-83
2023/04/11 09:42:01;;;;;;;0.90;0.85;;;;;;;;;;6201669;23;20481;-82
2023/04/11 09:44:35;;;;;;;0.85;0.85;;;;;;;;;;6203351;23;20028;-85
2023/04/11 09:47:01;;;;;;;0.10;0.10;;;;;;;;;;6203971;23;20066;-80
2023/04/11 09:49:28;;;;;;;0.10;0.10;;;;;;;;;;6178509;23;20046;-83
2023/04/11 09:51:55;;;;;;;0.10;0.10;;;;;;;;;;6205026;23;20126;-84
2023/04/11 09:54:21;;;;;;;0.10;0.10;;;;;;;;;;6231534;23;20123;-84
2023/04/11 09:56:48;;;;;;;0.10;0.10;;;;;;;;;;6204549;23;20356;-86
2023/04/11 09:59:15;;;;;;;0.10;0.10;;;;;;;;;;6230997;23;20317;-86
2023/04/11 10:01:41;;;;;;;0.10;0.10;;;;;;;;;;6231865;23;20020;-81
2023/04/11 10:04:09;;;;;;;0.10;0.10;;;;;;;;;;6204595;23;20028;-83
2023/04/11 10:07:01;;;;;;;0.10;0.10;;;;;;;;;;6204228;23;20024;-84
2023/04/11 10:09:27;;;;;;;0.10;0.10;;;;;;;;;;6187158;23;20031;-83
2023/04/11 10:11:54;;;;;;;0.10;0.10;;;;;;;;;;6231076;23;20020;-82
2023/04/11 10:14:40;;;;;;;0.10;0.10;;;;;;;;;;6230664;23;20020;-82
2023/04/11 10:17:16;;;;;;;0.10;0.10;;;;;;;;;;6231356;23;20340;-82
2023/04/11 10:19:43;;;;;;;0.10;0.10;;;;;;;;;;6231197;23;20408;-82
2023/04/11 10:22:10;;;;;;;0.10;0.10;;;;;;;;;;6203921;23;20028;-82
2023/04/11 10:24:37;;;;;;;0.10;0.10;;;;;;;;;;6179138;23;20024;-80
2023/04/11 10:27:04;;;;;;;0.10;0.10;;;;;;;;;;6203930;23;20347;-78
2023/04/11 10:32:09;;;;;;;0.10;0.10;;;;;;;;;;6203986;23;20031;-78
2023/04/11 10:34:38;;;;;;;0.10;0.10;;;;;;;;;;6204209;23;20031;-77
2023/04/11 10:37:08;;;;;;;0.15;0.15;;;;;;;;;;6203716;23;20052;-76
2023/04/11 10:39:50;;;;;;;0.10;0.10;;;;;;;;;;6178340;23;20124;-78
2023/04/11 10:42:42;;;;;;;0.10;0.10;;;;;;;;;;6203994;23;20502;-78
2023/04/11 10:45:25;;;;;;;0.10;0.10;;;;;;;;;;6198644;23;20032;-79
2023/04/11 10:47:51;;;;;;;0.10;0.10;;;;;;;;;;6205719;23;20047;-80
2023/04/11 10:50:23;;;;;;;0.10;0.10;;;;;;;;;;6204550;23;20062;-78
2023/04/11 10:52:49;;;;;;;0.10;0.10;;;;;;;;;;6204895;23;20024;-76
2023/04/11 10:55:16;;;;;;;0.10;0.10;;;;;;;;;;6205237;23;20046;-78
2023/04/11 10:58:01;;;;;;;0.10;0.10;;;;;;;;;;6205864;23;20132;-79
2023/04/11 11:00:27;;;;;;;0.10;0.10;;;;;;;;;;6205036;23;20027;-77
2023/04/11 11:02:53;;;;;;;0.10;0.10;;;;;;;;;;6205207;23;20060;-78
2023/04/11 11:05:20;;;;;;;0.10;0.10;;;;;;;;;;6200617;23;20059;-75
2023/04/11 11:07:47;;;;;;;0.10;0.10;;;;;;;;;;6203872;23;20363;-75
2023/04/11 11:10:13;;;;;;;0.10;0.10;;;;;;;;;;6204050;23;20020;-74
2023/04/11 11:12:53;;;;;;;0.10;0.10;;;;;;;;;;6203791;23;20068;-74
2023/04/11 11:15:19;;;;;;;0.10;0.10;;;;;;;;;;6204299;23;20032;-74
2023/04/11 11:17:46;;;;;;;2.30;1.85;;;;;;;;;;6204052;23;20031;-75
2023/04/11 11:20:15;;;;;;;0.10;0.10;;;;;;;;;;6204229;23;20024;-74
2023/04/11 11:22:41;;;;;;;0.10;0.10;;;;;;;;;;6205836;23;20031;-74
2023/04/11 11:25:08;;;;;;;0.10;0.10;;;;;;;;;;6204525;23;20089;-75
2023/04/11 11:27:34;;;;;;;0.10;0.10;;;;;;;;;;6204205;23;20510;-75
2023/04/11 11:30:10;;;;;;;0.10;0.10;;;;;;;;;;6204481;23;20031;-75
2023/04/11 11:32:36;;;;;;;0.10;0.10;;;;;;;;;;6231214;23;20455;-75
2023/04/11 11:35:12;;;;;;;0.10;0.10;;;;;;;;;;6203908;23;20024;-76
2023/04/11 11:37:38;;;;;;;0.10;0.10;;;;;;;;;;6203787;23;20027;-76
2023/04/11 11:40:08;;;;;;;0.10;0.10;;;;;;;;;;6203876;23;20047;-76
2023/04/11 11:42:36;;;;;;;0.10;0.10;;;;;;;;;;6204499;23;20016;-75
2023/04/11 11:45:18;;;;;;;0.10;0.10;;;;;;;;;;6203340;23;20541;-76
2023/04/11 11:47:45;;;;;;;0.10;0.10;;;;;;;;;;6203318;23;20020;-78
2023/04/11 11:50:11;;;;;;;0.10;0.10;;;;;;;;;;6203082;23;20051;-77
2023/04/11 11:52:42;;;;;;;0.10;0.10;;;;;;;;;;6231398;23;20491;-79
2023/04/11 11:55:28;;;;;;;0.10;0.10;;;;;;;;;;6230060;23;20355;-78
2023/04/11 11:57:58;;;;;;;0.10;0.10;;;;;;;;;;6203799;23;20035;-77
2023/04/11 12:00:25;;;;;;;0.10;0.10;;;;;;;;;;6203718;23;20028;-77
2023/04/11 12:02:51;;;;;;;1.10;0.77;;;;;;;;;;6230147;23;20020;-78
2023/04/11 12:05:17;;;;;;;0.10;0.10;;;;;;;;;;6203504;23;20027;-78
2023/04/11 12:07:44;;;;;;;0.20;0.20;;;;;;;;;;6231077;23;20020;-78
2023/04/11 12:10:13;;;;;;;0.10;0.10;;;;;;;;;;6230441;23;20023;-77
2023/04/11 12:12:43;;;;;;;0.10;0.10;;;;;;;;;;6231092;23;20400;-78
2023/04/11 12:15:10;;;;;;;0.10;0.10;;;;;;;;;;6203067;23;20028;-78
2023/04/11 12:17:36;;;;;;;0.13;0.13;;;;;;;;;;6230527;23;20101;-78
2023/04/11 12:20:09;;;;;;;0.10;0.10;;;;;;;;;;6229182;23;20074;-78
2023/04/11 12:22:38;;;;;;;2.07;1.63;;;;;;;;;;6203734;23;20020;-77
2023/04/11 12:25:12;;;;;;;0.10;0.10;;;;;;;;;;6204030;23;20035;-75
2023/04/11 12:27:38;;;;;;;0.10;0.10;;;;;;;;;;6230125;23;20020;-78
2023/04/11 12:30:05;;;;;;;0.10;0.10;;;;;;;;;;6203733;23;20617;-78
2023/04/11 12:32:32;;;;;;;0.10;0.10;;;;;;;;;;6177735;23;20158;-78
2023/04/11 12:34:58;;;;;;;0.82;0.82;;;;;;;;;;6230145;23;20027;-79
2023/04/11 12:37:25;;;;;;;0.10;0.10;;;;;;;;;;6204263;23;20016;-77
2023/04/11 12:39:51;;;;;;;0.10;0.10;;;;;;;;;;6203433;23;20387;-78
2023/04/11 12:42:17;;;;;;;0.38;0.38;;;;;;;;;;6177156;23;20027;-77
2023/04/11 12:44:43;;;;;;;0.10;0.10;;;;;;;;;;6202967;23;20416;-75
2023/04/11 12:47:09;;;;;;;0.10;0.10;;;;;;;;;;6229902;23;20542;-75
2023/04/11 12:49:36;;;;;;;0.10;0.10;;;;;;;;;;6202670;23;20020;-76
2023/04/11 12:52:02;;;;;;;0.10;0.10;;;;;;;;;;6203257;23;20028;-75
2023/04/11 12:54:28;;;;;;;0.10;0.10;;;;;;;;;;6203070;23;20028;-74
2023/04/11 12:56:56;;;;;;;0.38;0.38;;;;;;;;;;6229749;23;20521;-75
2023/04/11 12:59:22;;;;;;;;;;;;;;;;;;6203706;23;20131;-75
2023/04/11 13:01:48;;;;;;;;;;;;;;;;;;6203283;23;19935;-76
2023/04/11 13:04:14;;;;;;;;;;;;;;;;;;6179308;23;19937;-75
2023/04/11 13:06:41;;;;;;;;;;;;;;;;;;6202949;23;20034;-75
2023/04/11 13:09:07;;;;;;;;;;;;;;;;;;6203659;23;19915;-74
2023/04/11 13:11:33;;;;;;;;;;;;;;;;;;6203423;23;20283;-74
2023/04/11 13:13:59;;;;;;;;;;;;;;;;;;6204219;23;19976;-74
2023/04/11 13:16:25;;;;;;;;;;;;;;;;;;6203431;23;19997;-74
2023/04/11 13:18:51;;;;;;;;;;;;;;;;;;6202819;23;19925;-75
2023/04/11 13:21:17;;;;;;;;;;;;;;;;;;6203074;23;20246;-74
2023/04/11 13:23:43;;;;;;;;;;;;;;;;;;6203782;23;19922;-78
2023/04/11 13:26:09;;;;;;;;;;;;;;;;;;6230321;23;19915;-77
2023/04/11 13:28:35;;;;;;;;;;;;;;;;;;6230271;23;19921;-78
2023/04/11 13:31:01;;;;;;;0.10;0.10;;;;;;;;;;6202644;23;19919;-78
2023/04/11 13:33:27;;;;;;;0.15;0.15;;;;;;;;;;6202333;23;20484;-77
2023/04/11 13:35:53;;;;;;;0.10;0.10;;;;;;;;;;6202659;23;20091;-78
2023/04/11 13:38:20;;;;;;;0.10;0.10;;;;;;;;;;6229664;23;20031;-78
2023/04/11 13:40:46;;;;;;;0.10;0.10;;;;;;;;;;6202884;23;20028;-80
2023/04/11 13:43:12;;;;;;;0.10;0.10;;;;;;;;;;6230204;23;20924;-81
2023/04/11 13:45:38;;;;;;;0.10;0.10;;;;;;;;;;6202833;23;20577;-83
2023/04/11 13:48:05;;;;;;;0.10;0.10;;;;;;;;;;6206860;23;20444;-82
2023/04/11 13:50:33;;;;;;;0.10;0.10;;;;;;;;;;6205571;23;20024;-82
2023/04/11 13:52:59;;;;;;;0.10;0.10;;;;;;;;;;6206416;23;20399;-80
2023/04/11 13:55:25;;;;;;;0.20;0.20;;;;;;;;;;6181931;23;20023;-82
2023/04/11 13:57:51;;;;;;;0.20;0.20;;;;;;;;;;6231474;23;20569;-81
2023/04/11 14:00:19;;;;;;;0.10;0.10;;;;;;;;;;6230689;23;20093;-75
2023/04/11 14:02:45;;;;;;;0.13;0.13;;;;;;;;;;6230718;23;20016;-81
2023/04/11 14:05:11;;;;;;;0.20;0.20;;;;;;;;;;6229462;23;20186;-82
2023/04/11 14:07:38;;;;;;;0.10;0.10;;;;;;;;;;6203303;23;20106;-78
2023/04/11 14:10:04;;;;;;;0.10;0.10;;;;;;;;;;6203913;23;20028;-81
2023/04/11 14:12:30;;;;;;;0.10;0.10;;;;;;;;;;6230969;23;20383;-78
2023/04/11 14:14:56;;;;;;;0.10;0.10;;;;;;;;;;6178211;23;20097;-78
2023/04/11 14:17:22;;;;;;;0.10;0.10;;;;;;;;;;6202737;23;20027;-80
2023/04/11 14:19:48;;;;;;;0.10;0.10;;;;;;;;;;6203201;23;20024;-82
2023/04/11 14:22:14;;;;;;;0.43;0.43;;;;;;;;;;6204474;23;20453;-79
2023/04/11 14:24:40;;;;;;;0.10;0.10;;;;;;;;;;6201115;23;20024;-82
2023/04/11 14:27:07;;;;;;;0.22;0.22;;;;;;;;;;6201478;23;20024;-77
2023/04/11 14:29:33;;;;;;;0.10;0.10;;;;;;;;;;6201386;23;20469;-89
2023/04/11 14:32:00;;;;;;;0.10;0.10;;;;;;;;;;6233140;23;20599;-85
2023/04/11 14:34:27;;;;;;;0.10;0.10;;;;;;;;;;6230081;23;20024;-92
2023/04/11 14:36:53;;;;;;;0.10;0.10;;;;;;;;;;6230871;22;20023;-83
2023/04/11 14:39:20;;;;;;;0.10;0.10;;;;;;;;;;6202585;23;20096;-75
2023/04/11 14:41:47;;;;;;;0.10;0.10;;;;;;;;;;6229349;23;20040;-74
2023/04/11 14:44:15;;;;;;;0.10;0.10;;;;;;;;;;6228515;23;20024;-75
2023/04/11 14:46:41;;;;;;;0.10;0.10;;;;;;;;;;6228022;23;20020;-76
2023/04/11 14:49:07;;;;;;;0.10;0.10;;;;;;;;;;6202328;23;20490;-75
2023/04/11 14:51:34;;;;;;;0.10;0.10;;;;;;;;;;6200838;23;20028;-75
2023/04/11 14:54:00;;;;;;;0.10;0.10;;;;;;;;;;6201618;23;20356;-76
2023/04/11 14:56:26;;;;;;;0.73;0.73;;;;;;;;;;6228750;23;20099;-75
2023/04/11 14:58:52;;;;;;;0.10;0.10;;;;;;;;;;6209479;22;20032;-91
2023/04/11 15:01:19;;;;;;;12.95;2.10;;;;;;;;;;6206956;23;20024;-88
2023/04/11 15:03:45;;;;;;;0.10;0.10;;;;;;;;;;6232984;23;20048;-92
2023/04/11 15:06:12;;;;;;;0.10;0.10;;;;;;;;;;6205463;23;20020;-88
2023/04/11 15:08:38;;;;;;;0.10;0.10;;;;;;;;;;6208661;23;20045;-92
2023/04/11 15:11:05;;;;;;;0.10;0.10;;;;;;;;;;6207422;23;20024;-86
2023/04/11 15:13:31;;;;;;;0.10;0.10;;;;;;;;;;6207023;23;20077;-88
2023/04/11 15:16:01;;;;;;;0.10;0.10;;;;;;;;;;6205099;23;20447;-85
2023/04/11 15:18:28;;;;;;;0.10;0.10;;;;;;;;;;6176781;23;20016;-74
2023/04/11 15:20:55;;;;;;;0.10;0.10;;;;;;;;;;6201001;23;20020;-74
2023/04/11 15:23:24;;;;;;;0.10;0.10;;;;;;;;;;6202375;23;20035;-74
2023/04/11 15:25:57;;;;;;;0.10;0.10;;;;;;;;;;6200949;23;20102;-73
2023/04/11 15:28:24;;;;;;;0.17;0.17;;;;;;;;;;6202009;23;20112;-75
2023/04/11 15:30:51;;;;;;;0.10;0.10;;;;;;;;;;6202665;23;20035;-75
2023/04/11 15:33:17;;;;;;;0.20;0.20;;;;;;;;;;6178693;23;20024;-75
2023/04/11 15:35:44;;;;;;;0.10;0.10;;;;;;;;;;6202883;23;20605;-75